sensor_id;sensor_type;location;lat;lon;timestamp;pressure;altitude;pressure_sealevel;temperature
85096;BMP280;75436;53.502;10.030;2024-01-15T00:01:55;98999.53;;;1.81
85096;BMP280;75436;53.502;10.030;2024-01-15T00:04:20;99005.81;;;1.88
85096;BMP280;75436;53.502;10.030;2024-01-15T00:06:45;99019.09;;;1.95
85096;BMP280;75436;53.502;10.030;2024-01-15T00:09:11;99009.50;;;1.96
85096;BMP280;75436;53.502;10.030;2024-01-15T00:11:36;99025.03;;;1.96
85096;BMP280;75436;53.502;10.030;2024-01-15T00:14:02;99018.81;;;1.97
85096;BMP280;75436;53.502;10.030;2024-01-15T00:16:28;99013.16;;;1.95
85096;BMP280;75436;53.502;10.030;2024-01-15T00:18:53;98999.34;;;1.77
85096;BMP280;75436;53.502;10.030;2024-01-15T00:21:19;98974.88;;;1.62
85096;BMP280;75436;53.502;10.030;2024-01-15T00:23:44;98970.34;;;1.67
85096;BMP280;75436;53.502;10.030;2024-01-15T00:26:10;98957.66;;;1.79
85096;BMP280;75436;53.502;10.030;2024-01-15T00:28:37;98955.06;;;1.79
85096;BMP280;75436;53.502;10.030;2024-01-15T00:31:04;98969.59;;;1.88
85096;BMP280;75436;53.502;10.030;2024-01-15T00:33:29;98971.56;;;1.91
85096;BMP280;75436;53.502;10.030;2024-01-15T00:35:55;98960.63;;;1.94
85096;BMP280;75436;53.502;10.030;2024-01-15T00:38:20;98950.22;;;1.86
85096;BMP280;75436;53.502;10.030;2024-01-15T00:40:46;98939.09;;;1.85
85096;BMP280;75436;53.502;10.030;2024-01-15T00:43:11;98926.16;;;1.77
85096;BMP280;75436;53.502;10.030;2024-01-15T00:45:37;98923.28;;;1.78
85096;BMP280;75436;53.502;10.030;2024-01-15T00:48:03;98912.25;;;1.73
85096;BMP280;75436;53.502;10.030;2024-01-15T00:50:29;98921.75;;;1.77
85096;BMP280;75436;53.502;10.030;2024-01-15T00:52:54;98915.03;;;1.76
85096;BMP280;75436;53.502;10.030;2024-01-15T00:55:22;98911.91;;;1.66
85096;BMP280;75436;53.502;10.030;2024-01-15T00:57:49;98890.88;;;1.81
85096;BMP280;75436;53.502;10.030;2024-01-15T01:00:14;98883.66;;;1.69
85096;BMP280;75436;53.502;10.030;2024-01-15T01:02:40;98893.16;;;1.82
85096;BMP280;75436;53.502;10.030;2024-01-15T01:05:06;98889.66;;;1.87
85096;BMP280;75436;53.502;10.030;2024-01-15T01:07:31;98904.50;;;1.95
85096;BMP280;75436;53.502;10.030;2024-01-15T01:09:57;98906.59;;;1.93
85096;BMP280;75436;53.502;10.030;2024-01-15T01:12:22;98903.88;;;1.98
85096;BMP280;75436;53.502;10.030;2024-01-15T01:14:48;98917.63;;;2.06
85096;BMP280;75436;53.502;10.030;2024-01-15T01:17:13;98914.09;;;2.02
85096;BMP280;75436;53.502;10.030;2024-01-15T01:19:41;98919.59;;;2.01
85096;BMP280;75436;53.502;10.030;2024-01-15T01:22:07;98912.97;;;2.17
85096;BMP280;75436;53.502;10.030;2024-01-15T01:24:32;98925.63;;;2.27
85096;BMP280;75436;53.502;10.030;2024-01-15T01:26:58;98929.63;;;2.33
85096;BMP280;75436;53.502;10.030;2024-01-15T01:29:24;98938.28;;;2.28
85096;BMP280;75436;53.502;10.030;2024-01-15T01:31:49;98949.59;;;2.40
85096;BMP280;75436;53.502;10.030;2024-01-15T01:34:15;98924.47;;;2.33
85096;BMP280;75436;53.502;10.030;2024-01-15T01:36:44;98929.94;;;2.31
85096;BMP280;75436;53.502;10.030;2024-01-15T01:39:09;98924.13;;;2.34
85096;BMP280;75436;53.502;10.030;2024-01-15T01:41:35;98930.34;;;2.25
85096;BMP280;75436;53.502;10.030;2024-01-15T01:44:02;98925.81;;;2.22
85096;BMP280;75436;53.502;10.030;2024-01-15T01:46:28;98918.63;;;2.27
85096;BMP280;75436;53.502;10.030;2024-01-15T01:48:55;98921.50;;;2.17
85096;BMP280;75436;53.502;10.030;2024-01-15T01:51:24;98906.69;;;2.09
85096;BMP280;75436;53.502;10.030;2024-01-15T01:53:50;98904.41;;;2.08
85096;BMP280;75436;53.502;10.030;2024-01-15T01:56:16;98906.94;;;2.00
85096;BMP280;75436;53.502;10.030;2024-01-15T01:58:43;98880.19;;;2.04
85096;BMP280;75436;53.502;10.030;2024-01-15T02:01:10;98881.81;;;2.00
85096;BMP280;75436;53.502;10.030;2024-01-15T02:03:38;98890.94;;;1.98
85096;BMP280;75436;53.502;10.030;2024-01-15T02:06:05;98865.69;;;1.95
85096;BMP280;75436;53.502;10.030;2024-01-15T02:08:31;98878.47;;;2.00
85096;BMP280;75436;53.502;10.030;2024-01-15T02:10:57;98880.63;;;2.06
85096;BMP280;75436;53.502;10.030;2024-01-15T02:13:23;98873.34;;;2.08
85096;BMP280;75436;53.502;10.030;2024-01-15T02:15:48;98876.41;;;2.10
85096;BMP280;75436;53.502;10.030;2024-01-15T02:18:14;98864.22;;;2.10
85096;BMP280;75436;53.502;10.030;2024-01-15T02:20:39;98863.97;;;2.20
85096;BMP280;75436;53.502;10.030;2024-01-15T02:23:13;98865.63;;;2.16
85096;BMP280;75436;53.502;10.030;2024-01-15T02:25:43;98844.44;;;2.14
85096;BMP280;75436;53.502;10.030;2024-01-15T02:28:17;98859.09;;;2.27
85096;BMP280;75436;53.502;10.030;2024-01-15T02:30:45;98873.84;;;2.18
85096;BMP280;75436;53.502;10.030;2024-01-15T02:33:11;98855.88;;;2.13
85096;BMP280;75436;53.502;10.030;2024-01-15T02:35:37;98832.41;;;2.10
85096;BMP280;75436;53.502;10.030;2024-01-15T02:38:03;98823.75;;;2.14
85096;BMP280;75436;53.502;10.030;2024-01-15T02:40:29;98826.97;;;2.28
85096;BMP280;75436;53.502;10.030;2024-01-15T02:42:58;98831.84;;;2.30
85096;BMP280;75436;53.502;10.030;2024-01-15T02:45:23;98831.53;;;2.31
85096;BMP280;75436;53.502;10.030;2024-01-15T02:47:49;98842.69;;;2.40
85096;BMP280;75436;53.502;10.030;2024-01-15T02:50:15;98853.97;;;2.44
85096;BMP280;75436;53.502;10.030;2024-01-15T02:52:44;98856.53;;;2.35
85096;BMP280;75436;53.502;10.030;2024-01-15T02:55:09;98872.53;;;2.37
85096;BMP280;75436;53.502;10.030;2024-01-15T02:57:35;98865.41;;;2.43
85096;BMP280;75436;53.502;10.030;2024-01-15T03:00:00;98871.91;;;2.32
85096;BMP280;75436;53.502;10.030;2024-01-15T03:02:26;98865.19;;;2.31
85096;BMP280;75436;53.502;10.030;2024-01-15T03:04:51;98872.31;;;2.26
85096;BMP280;75436;53.502;10.030;2024-01-15T03:07:17;98850.56;;;2.18
85096;BMP280;75436;53.502;10.030;2024-01-15T03:09:43;98833.16;;;2.10
85096;BMP280;75436;53.502;10.030;2024-01-15T03:12:08;98841.06;;;2.05
85096;BMP280;75436;53.502;10.030;2024-01-15T03:14:36;98818.69;;;2.01
85096;BMP280;75436;53.502;10.030;2024-01-15T03:17:01;98814.06;;;1.98
85096;BMP280;75436;53.502;10.030;2024-01-15T03:19:27;98828.59;;;2.07
85096;BMP280;75436;53.502;10.030;2024-01-15T03:21:53;98825.03;;;1.95
85096;BMP280;75436;53.502;10.030;2024-01-15T03:24:21;98819.69;;;1.92
85096;BMP280;75436;53.502;10.030;2024-01-15T03:26:46;98821.75;;;1.81
85096;BMP280;75436;53.502;10.030;2024-01-15T03:29:15;98821.22;;;1.93
85096;BMP280;75436;53.502;10.030;2024-01-15T03:31:40;98810.88;;;1.93
85096;BMP280;75436;53.502;10.030;2024-01-15T03:34:06;98833.72;;;1.99
85096;BMP280;75436;53.502;10.030;2024-01-15T03:36:31;98809.78;;;1.94
85096;BMP280;75436;53.502;10.030;2024-01-15T03:38:56;98810.13;;;1.92
85096;BMP280;75436;53.502;10.030;2024-01-15T03:41:22;98808.56;;;1.91
85096;BMP280;75436;53.502;10.030;2024-01-15T03:43:47;98824.81;;;2.30
85096;BMP280;75436;53.502;10.030;2024-01-15T03:46:13;98826.94;;;2.11
85096;BMP280;75436;53.502;10.030;2024-01-15T03:48:38;98819.59;;;2.05
85096;BMP280;75436;53.502;10.030;2024-01-15T03:51:04;98807.53;;;1.92
85096;BMP280;75436;53.502;10.030;2024-01-15T03:53:29;98797.47;;;1.91
85096;BMP280;75436;53.502;10.030;2024-01-15T03:55:54;98773.75;;;1.97
85096;BMP280;75436;53.502;10.030;2024-01-15T03:58:20;98784.97;;;1.84
85096;BMP280;75436;53.502;10.030;2024-01-15T04:00:45;98776.88;;;1.86
85096;BMP280;75436;53.502;10.030;2024-01-15T04:03:11;98761.25;;;1.91
85096;BMP280;75436;53.502;10.030;2024-01-15T04:05:38;98764.13;;;1.89
85096;BMP280;75436;53.502;10.030;2024-01-15T04:08:03;98775.69;;;1.92
85096;BMP280;75436;53.502;10.030;2024-01-15T04:10:29;98767.03;;;1.96
85096;BMP280;75436;53.502;10.030;2024-01-15T04:12:58;98777.81;;;1.90
85096;BMP280;75436;53.502;10.030;2024-01-15T04:15:25;98781.00;;;1.87
85096;BMP280;75436;53.502;10.030;2024-01-15T04:17:53;98787.31;;;2.02
85096;BMP280;75436;53.502;10.030;2024-01-15T04:20:19;98796.19;;;2.10
85096;BMP280;75436;53.502;10.030;2024-01-15T04:22:47;98815.03;;;2.10
85096;BMP280;75436;53.502;10.030;2024-01-15T04:25:12;98826.78;;;2.16
85096;BMP280;75436;53.502;10.030;2024-01-15T04:27:38;98856.59;;;2.05
85096;BMP280;75436;53.502;10.030;2024-01-15T04:30:04;98864.22;;;2.10
85096;BMP280;75436;53.502;10.030;2024-01-15T04:32:30;98861.00;;;2.05
85096;BMP280;75436;53.502;10.030;2024-01-15T04:34:55;98869.63;;;2.01
85096;BMP280;75436;53.502;10.030;2024-01-15T04:37:21;98866.25;;;1.92
85096;BMP280;75436;53.502;10.030;2024-01-15T04:39:46;98864.31;;;1.97
85096;BMP280;75436;53.502;10.030;2024-01-15T04:42:11;98863.19;;;1.90
85096;BMP280;75436;53.502;10.030;2024-01-15T04:44:37;98855.31;;;1.95
85096;BMP280;75436;53.502;10.030;2024-01-15T04:47:02;98873.34;;;2.08
85096;BMP280;75436;53.502;10.030;2024-01-15T04:49:28;98876.97;;;1.99
85096;BMP280;75436;53.502;10.030;2024-01-15T04:51:54;98880.19;;;2.04
85096;BMP280;75436;53.502;10.030;2024-01-15T04:54:20;98887.19;;;2.03
85096;BMP280;75436;53.502;10.030;2024-01-15T04:56:45;98898.16;;;2.09
85096;BMP280;75436;53.502;10.030;2024-01-15T04:59:11;98900.69;;;2.01
85096;BMP280;75436;53.502;10.030;2024-01-15T05:01:36;98899.03;;;2.04
85096;BMP280;75436;53.502;10.030;2024-01-15T05:04:02;98908.63;;;2.04
85096;BMP280;75436;53.502;10.030;2024-01-15T05:06:27;98904.16;;;1.96
85096;BMP280;75436;53.502;10.030;2024-01-15T05:08:53;98906.34;;;2.02
85096;BMP280;75436;53.502;10.030;2024-01-15T05:11:18;98904.28;;;2.13
85096;BMP280;75436;53.502;10.030;2024-01-15T05:13:44;98908.88;;;1.94
85096;BMP280;75436;53.502;10.030;2024-01-15T05:16:09;98917.47;;;2.03
85096;BMP280;75436;53.502;10.030;2024-01-15T05:18:35;98907.38;;;1.93
85096;BMP280;75436;53.502;10.030;2024-01-15T05:21:02;98910.66;;;1.85
85096;BMP280;75436;53.502;10.030;2024-01-15T05:23:28;98904.00;;;1.93
85096;BMP280;75436;53.502;10.030;2024-01-15T05:25:54;98906.41;;;1.89
85096;BMP280;75436;53.502;10.030;2024-01-15T05:28:19;98909.00;;;1.89
85096;BMP280;75436;53.502;10.030;2024-01-15T05:30:45;98904.34;;;2.00
85096;BMP280;75436;53.502;10.030;2024-01-15T05:33:10;98893.59;;;2.06
85096;BMP280;75436;53.502;10.030;2024-01-15T05:35:35;98920.75;;;2.25
85096;BMP280;75436;53.502;10.030;2024-01-15T05:38:01;98916.63;;;2.16
85096;BMP280;75436;53.502;10.030;2024-01-15T05:40:30;98913.25;;;2.15
85096;BMP280;75436;53.502;10.030;2024-01-15T05:42:56;98914.63;;;2.13
85096;BMP280;75436;53.502;10.030;2024-01-15T05:45:21;98912.97;;;2.25
85096;BMP280;75436;53.502;10.030;2024-01-15T05:47:47;98909.03;;;2.28
85096;BMP280;75436;53.502;10.030;2024-01-15T05:50:12;98906.91;;;2.21
85096;BMP280;75436;53.502;10.030;2024-01-15T05:52:39;98912.06;;;2.21
85096;BMP280;75436;53.502;10.030;2024-01-15T05:55:04;98912.41;;;2.28
85096;BMP280;75436;53.502;10.030;2024-01-15T05:57:30;98914.84;;;2.33
85096;BMP280;75436;53.502;10.030;2024-01-15T05:59:55;98926.88;;;2.29
85096;BMP280;75436;53.502;10.030;2024-01-15T06:02:21;98918.34;;;2.29
85096;BMP280;75436;53.502;10.030;2024-01-15T06:04:46;98928.28;;;2.35
85096;BMP280;75436;53.502;10.030;2024-01-15T06:07:12;98925.78;;;2.30
85096;BMP280;75436;53.502;10.030;2024-01-15T06:09:37;98932.50;;;2.31
85096;BMP280;75436;53.502;10.030;2024-01-15T06:12:04;98933.44;;;2.35
85096;BMP280;75436;53.502;10.030;2024-01-15T06:14:30;98932.50;;;2.31
85096;BMP280;75436;53.502;10.030;2024-01-15T06:16:55;98933.22;;;2.23
85096;BMP280;75436;53.502;10.030;2024-01-15T06:19:21;98924.72;;;2.23
85096;BMP280;75436;53.502;10.030;2024-01-15T06:21:46;98917.25;;;2.21
85096;BMP280;75436;53.502;10.030;2024-01-15T06:24:15;98926.38;;;2.19
85096;BMP280;75436;53.502;10.030;2024-01-15T06:26:42;98920.25;;;2.15
85096;BMP280;75436;53.502;10.030;2024-01-15T06:29:08;98921.22;;;2.27
85096;BMP280;75436;53.502;10.030;2024-01-15T06:31:35;98934.44;;;2.26
85096;BMP280;75436;53.502;10.030;2024-01-15T06:34:00;98937.22;;;2.21
85096;BMP280;75436;53.502;10.030;2024-01-15T06:36:25;98940.00;;;2.33
85096;BMP280;75436;53.502;10.030;2024-01-15T06:38:51;98942.84;;;2.23
85096;BMP280;75436;53.502;10.030;2024-01-15T06:41:16;98950.63;;;2.23
85096;BMP280;75436;53.502;10.030;2024-01-15T06:43:44;98944.53;;;2.27
85096;BMP280;75436;53.502;10.030;2024-01-15T06:46:10;98947.56;;;2.21
85096;BMP280;75436;53.502;10.030;2024-01-15T06:48:35;98944.16;;;2.12
85096;BMP280;75436;53.502;10.030;2024-01-15T06:51:01;98942.25;;;2.34
85096;BMP280;75436;53.502;10.030;2024-01-15T06:53:26;98948.47;;;2.25
85096;BMP280;75436;53.502;10.030;2024-01-15T06:55:51;98943.47;;;2.28
85096;BMP280;75436;53.502;10.030;2024-01-15T06:58:17;98962.16;;;2.25
85096;BMP280;75436;53.502;10.030;2024-01-15T07:00:42;98952.25;;;2.19
85096;BMP280;75436;53.502;10.030;2024-01-15T07:03:08;98958.16;;;2.11
85096;BMP280;75436;53.502;10.030;2024-01-15T07:05:33;98955.28;;;2.12
85096;BMP280;75436;53.502;10.030;2024-01-15T07:07:59;98956.91;;;2.08
85096;BMP280;75436;53.502;10.030;2024-01-15T07:10:25;98952.16;;;2.02
85096;BMP280;75436;53.502;10.030;2024-01-15T07:12:51;98942.75;;;2.06
85096;BMP280;75436;53.502;10.030;2024-01-15T07:15:17;98964.53;;;2.05
85096;BMP280;75436;53.502;10.030;2024-01-15T07:17:45;98967.13;;;2.05
85096;BMP280;75436;53.502;10.030;2024-01-15T07:20:11;98976.81;;;2.00
85096;BMP280;75436;53.502;10.030;2024-01-15T07:22:36;98987.03;;;2.04
85096;BMP280;75436;53.502;10.030;2024-01-15T07:25:02;98998.03;;;2.10
85096;BMP280;75436;53.502;10.030;2024-01-15T07:27:29;99000.34;;;2.11
85096;BMP280;75436;53.502;10.030;2024-01-15T07:29:56;99004.56;;;2.07
85096;BMP280;75436;53.502;10.030;2024-01-15T07:32:21;99019.50;;;2.10
85096;BMP280;75436;53.502;10.030;2024-01-15T07:34:47;99026.69;;;2.13
85096;BMP280;75436;53.502;10.030;2024-01-15T07:37:12;99041.25;;;2.31
85096;BMP280;75436;53.502;10.030;2024-01-15T07:39:38;99054.19;;;2.31
85096;BMP280;75436;53.502;10.030;2024-01-15T07:42:03;99065.09;;;2.41
85096;BMP280;75436;53.502;10.030;2024-01-15T07:44:29;99069.03;;;2.39
85096;BMP280;75436;53.502;10.030;2024-01-15T07:46:54;99081.00;;;2.57
85096;BMP280;75436;53.502;10.030;2024-01-15T07:49:20;99070.44;;;2.45
85096;BMP280;75436;53.502;10.030;2024-01-15T07:51:45;99082.47;;;2.41
85096;BMP280;75436;53.502;10.030;2024-01-15T07:54:11;99079.97;;;2.36
85096;BMP280;75436;53.502;10.030;2024-01-15T07:56:59;99077.28;;;2.41
85096;BMP280;75436;53.502;10.030;2024-01-15T07:59:26;99074.69;;;2.41
85096;BMP280;75436;53.502;10.030;2024-01-15T08:01:52;99084.03;;;2.29
85096;BMP280;75436;53.502;10.030;2024-01-15T08:04:18;99073.50;;;2.25
85096;BMP280;75436;53.502;10.030;2024-01-15T08:06:45;99088.63;;;2.32
85096;BMP280;75436;53.502;10.030;2024-01-15T08:09:11;99087.38;;;2.29
85096;BMP280;75436;53.502;10.030;2024-01-15T08:11:41;99074.72;;;2.28
85096;BMP280;75436;53.502;10.030;2024-01-15T08:14:07;99079.03;;;2.32
85096;BMP280;75436;53.502;10.030;2024-01-15T08:16:33;99073.22;;;2.27
85096;BMP280;75436;53.502;10.030;2024-01-15T08:18:59;99073.38;;;2.22
85096;BMP280;75436;53.502;10.030;2024-01-15T08:21:24;99068.19;;;2.30
85096;BMP280;75436;53.502;10.030;2024-01-15T08:23:50;99074.25;;;2.26
85096;BMP280;75436;53.502;10.030;2024-01-15T08:26:15;99061.63;;;2.24
85096;BMP280;75436;53.502;10.030;2024-01-15T08:28:40;99070.16;;;2.25
85096;BMP280;75436;53.502;10.030;2024-01-15T08:31:06;99066.81;;;2.24
85096;BMP280;75436;53.502;10.030;2024-01-15T08:33:31;99081.44;;;2.29
85096;BMP280;75436;53.502;10.030;2024-01-15T08:35:57;99086.91;;;2.27
85096;BMP280;75436;53.502;10.030;2024-01-15T08:38:22;99079.75;;;2.24
85096;BMP280;75436;53.502;10.030;2024-01-15T08:40:49;99076.56;;;2.27
85096;BMP280;75436;53.502;10.030;2024-01-15T08:43:14;99073.84;;;2.32
85096;BMP280;75436;53.502;10.030;2024-01-15T08:45:40;99069.25;;;2.29
85096;BMP280;75436;53.502;10.030;2024-01-15T08:48:06;99068.31;;;2.25
85096;BMP280;75436;53.502;10.030;2024-01-15T08:50:32;99066.00;;;2.24
85096;BMP280;75436;53.502;10.030;2024-01-15T08:53:02;99072.13;;;2.28
85096;BMP280;75436;53.502;10.030;2024-01-15T08:55:28;99059.75;;;2.16
85096;BMP280;75436;53.502;10.030;2024-01-15T08:57:53;99048.25;;;2.09
85096;BMP280;75436;53.502;10.030;2024-01-15T09:00:20;99057.19;;;2.25
85096;BMP280;75436;53.502;10.030;2024-01-15T09:02:46;99042.94;;;2.05
85096;BMP280;75436;53.502;10.030;2024-01-15T09:05:11;99044.81;;;2.13
85096;BMP280;75436;53.502;10.030;2024-01-15T09:07:37;99038.84;;;2.13
85096;BMP280;75436;53.502;10.030;2024-01-15T09:10:02;99036.03;;;2.23
85096;BMP280;75436;53.502;10.030;2024-01-15T09:12:28;99053.25;;;2.27
85096;BMP280;75436;53.502;10.030;2024-01-15T09:14:54;99060.06;;;2.23
85096;BMP280;75436;53.502;10.030;2024-01-15T09:17:21;99058.72;;;2.26
85096;BMP280;75436;53.502;10.030;2024-01-15T09:19:49;99049.91;;;2.27
85096;BMP280;75436;53.502;10.030;2024-01-15T09:22:15;99035.13;;;2.27
85096;BMP280;75436;53.502;10.030;2024-01-15T09:24:46;99044.31;;;2.33
85096;BMP280;75436;53.502;10.030;2024-01-15T09:27:12;99049.22;;;2.35
85096;BMP280;75436;53.502;10.030;2024-01-15T09:29:38;99046.44;;;2.31
85096;BMP280;75436;53.502;10.030;2024-01-15T09:32:05;99049.38;;;2.38
85096;BMP280;75436;53.502;10.030;2024-01-15T09:34:34;99054.31;;;2.48
85096;BMP280;75436;53.502;10.030;2024-01-15T09:37:00;99060.72;;;2.50
85096;BMP280;75436;53.502;10.030;2024-01-15T09:39:27;99058.41;;;2.49
85096;BMP280;75436;53.502;10.030;2024-01-15T09:41:54;99052.91;;;2.42
85096;BMP280;75436;53.502;10.030;2024-01-15T09:44:20;99048.31;;;2.39
85096;BMP280;75436;53.502;10.030;2024-01-15T09:46:46;99057.75;;;2.35
85096;BMP280;75436;53.502;10.030;2024-01-15T09:49:16;99055.03;;;2.40
85096;BMP280;75436;53.502;10.030;2024-01-15T09:51:42;99056.38;;;2.37
85096;BMP280;75436;53.502;10.030;2024-01-15T09:54:08;99057.47;;;2.45
85096;BMP280;75436;53.502;10.030;2024-01-15T09:56:34;99046.72;;;2.51
85096;BMP280;75436;53.502;10.030;2024-01-15T09:59:01;99070.19;;;2.55
85096;BMP280;75436;53.502;10.030;2024-01-15T10:01:27;99072.53;;;2.65
85096;BMP280;75436;53.502;10.030;2024-01-15T10:03:54;99094.25;;;2.77
85096;BMP280;75436;53.502;10.030;2024-01-15T10:06:21;99132.22;;;3.11
85096;BMP280;75436;53.502;10.030;2024-01-15T10:08:51;99144.53;;;3.14
85096;BMP280;75436;53.502;10.030;2024-01-15T10:11:17;99160.16;;;2.93
85096;BMP280;75436;53.502;10.030;2024-01-15T10:13:49;99173.31;;;2.96
85096;BMP280;75436;53.502;10.030;2024-01-15T10:16:18;99159.25;;;2.67
85096;BMP280;75436;53.502;10.030;2024-01-15T10:18:44;99156.78;;;2.40
85096;BMP280;75436;53.502;10.030;2024-01-15T10:21:09;99134.34;;;2.14
85096;BMP280;75436;53.502;10.030;2024-01-15T10:23:35;99114.41;;;1.80
85096;BMP280;75436;53.502;10.030;2024-01-15T10:26:02;99084.94;;;1.54
85096;BMP280;75436;53.502;10.030;2024-01-15T10:28:28;99060.63;;;1.42
85096;BMP280;75436;53.502;10.030;2024-01-15T10:30:57;99040.09;;;1.45
85096;BMP280;75436;53.502;10.030;2024-01-15T10:33:24;99016.28;;;1.48
85096;BMP280;75436;53.502;10.030;2024-01-15T10:35:53;99011.91;;;1.70
85096;BMP280;75436;53.502;10.030;2024-01-15T10:38:21;99017.63;;;1.81
85096;BMP280;75436;53.502;10.030;2024-01-15T10:40:50;99028.09;;;1.76
85096;BMP280;75436;53.502;10.030;2024-01-15T10:43:16;99027.81;;;1.86
85096;BMP280;75436;53.502;10.030;2024-01-15T10:45:46;99038.78;;;1.83
85096;BMP280;75436;53.502;10.030;2024-01-15T10:48:13;99036.91;;;1.75
85096;BMP280;75436;53.502;10.030;2024-01-15T10:50:41;99049.00;;;1.88
85096;BMP280;75436;53.502;10.030;2024-01-15T10:53:08;99069.97;;;1.78
85096;BMP280;75436;53.502;10.030;2024-01-15T10:55:35;99058.88;;;1.51
85096;BMP280;75436;53.502;10.030;2024-01-15T10:58:02;99049.38;;;1.25
85096;BMP280;75436;53.502;10.030;2024-01-15T11:00:29;99027.25;;;1.19
85096;BMP280;75436;53.502;10.030;2024-01-15T11:02:56;99005.34;;;1.16
85096;BMP280;75436;53.502;10.030;2024-01-15T11:05:22;98992.03;;;1.23
85096;BMP280;75436;53.502;10.030;2024-01-15T11:07:49;98972.13;;;1.10
85096;BMP280;75436;53.502;10.030;2024-01-15T11:16:02;98928.00;;;1.06
85096;BMP280;75436;53.502;10.030;2024-01-15T11:18:38;98921.78;;;1.07
85096;BMP280;75436;53.502;10.030;2024-01-15T11:23:57;98889.91;;;1.12
85096;BMP280;75436;53.502;10.030;2024-01-15T11:29:07;98890.75;;;1.21
85096;BMP280;75436;53.502;10.030;2024-01-15T11:34:07;98893.69;;;1.28
85096;BMP280;75436;53.502;10.030;2024-01-15T11:41:52;98901.09;;;1.21
85096;BMP280;75436;53.502;10.030;2024-01-15T11:44:19;98907.44;;;1.15
85096;BMP280;75436;53.502;10.030;2024-01-15T11:47:01;98896.63;;;1.34
85096;BMP280;75436;53.502;10.030;2024-01-15T11:52:21;98912.38;;;1.25
85096;BMP280;75436;53.502;10.030;2024-01-15T11:55:20;98904.31;;;1.26
85096;BMP280;75436;53.502;10.030;2024-01-15T11:57:53;98918.91;;;1.44
85096;BMP280;75436;53.502;10.030;2024-01-15T12:00:22;98927.50;;;1.53
85096;BMP280;75436;53.502;10.030;2024-01-15T12:02:49;98944.09;;;1.38
85096;BMP280;75436;53.502;10.030;2024-01-15T12:05:17;98942.47;;;1.42
85096;BMP280;75436;53.502;10.030;2024-01-15T12:07:47;98943.16;;;1.56
85096;BMP280;75436;53.502;10.030;2024-01-15T12:10:19;98961.16;;;1.39
85096;BMP280;75436;53.502;10.030;2024-01-15T12:13:01;98966.84;;;1.50
85096;BMP280;75436;53.502;10.030;2024-01-15T12:15:30;98970.69;;;1.39
85096;BMP280;75436;53.502;10.030;2024-01-15T12:17:57;98971.50;;;1.39
85096;BMP280;75436;53.502;10.030;2024-01-15T12:20:31;98972.25;;;1.40
85096;BMP280;75436;53.502;10.030;2024-01-15T12:22:58;98982.66;;;1.35
85096;BMP280;75436;53.502;10.030;2024-01-15T12:25:24;98984.31;;;1.44
85096;BMP280;75436;53.502;10.030;2024-01-15T12:27:52;98981.13;;;1.47
85096;BMP280;75436;53.502;10.030;2024-01-15T12:30:22;98993.50;;;1.50
85096;BMP280;75436;53.502;10.030;2024-01-15T12:32:47;98998.34;;;1.52
85096;BMP280;75436;53.502;10.030;2024-01-15T12:35:14;99012.94;;;1.48
85096;BMP280;75436;53.502;10.030;2024-01-15T12:37:41;99008.31;;;1.45
85096;BMP280;75436;53.502;10.030;2024-01-15T12:40:10;99025.84;;;1.61
85096;BMP280;75436;53.502;10.030;2024-01-15T12:42:42;99037.44;;;1.50
85096;BMP280;75436;53.502;10.030;2024-01-15T12:45:09;99047.69;;;1.55
85096;BMP280;75436;53.502;10.030;2024-01-15T12:47:36;99057.91;;;1.60
85096;BMP280;75436;53.502;10.030;2024-01-15T12:50:06;99059.69;;;1.73
85096;BMP280;75436;53.502;10.030;2024-01-15T12:52:32;99080.63;;;1.63
85096;BMP280;75436;53.502;10.030;2024-01-15T12:54:58;99098.44;;;1.51
85096;BMP280;75436;53.502;10.030;2024-01-15T12:57:26;99082.94;;;1.38
85096;BMP280;75436;53.502;10.030;2024-01-15T12:59:54;99062.16;;;1.43
85096;BMP280;75436;53.502;10.030;2024-01-15T13:02:19;99058.31;;;1.40
85096;BMP280;75436;53.502;10.030;2024-01-15T13:04:45;99045.38;;;1.40
85096;BMP280;75436;53.502;10.030;2024-01-15T13:07:10;99033.91;;;1.33
85096;BMP280;75436;53.502;10.030;2024-01-15T13:09:36;99021.75;;;1.34
85096;BMP280;75436;53.502;10.030;2024-01-15T13:12:02;99019.75;;;1.44
85096;BMP280;75436;53.502;10.030;2024-01-15T13:14:28;99019.06;;;1.38
85096;BMP280;75436;53.502;10.030;2024-01-15T13:16:54;99017.44;;;1.42
85096;BMP280;75436;53.502;10.030;2024-01-15T13:19:20;99022.03;;;1.32
85096;BMP280;75436;53.502;10.030;2024-01-15T13:21:49;99026.00;;;1.30
85096;BMP280;75436;53.502;10.030;2024-01-15T13:24:16;99020.88;;;1.38
85096;BMP280;75436;53.502;10.030;2024-01-15T13:26:45;99022.31;;;1.44
85096;BMP280;75436;53.502;10.030;2024-01-15T13:29:10;99030.06;;;1.44
85096;BMP280;75436;53.502;10.030;2024-01-15T13:31:36;99023.34;;;1.43
85096;BMP280;75436;53.502;10.030;2024-01-15T13:34:01;99025.47;;;1.41
85096;BMP280;75436;53.502;10.030;2024-01-15T13:36:28;99035.41;;;1.47
85096;BMP280;75436;53.502;10.030;2024-01-15T13:38:54;99034.47;;;1.43
85096;BMP280;75436;53.502;10.030;2024-01-15T13:41:23;99040.22;;;1.40
85096;BMP280;75436;53.502;10.030;2024-01-15T13:43:53;99034.19;;;1.45
85096;BMP280;75436;53.502;10.030;2024-01-15T13:46:24;99041.25;;;1.53
85096;BMP280;75436;53.502;10.030;2024-01-15T13:48:53;99057.81;;;1.52
85096;BMP280;75436;53.502;10.030;2024-01-15T13:51:22;99056.03;;;1.52
85096;BMP280;75436;53.502;10.030;2024-01-15T13:53:49;99062.22;;;1.51
85096;BMP280;75436;53.502;10.030;2024-01-15T13:56:15;99065.69;;;1.47
85096;BMP280;75436;53.502;10.030;2024-01-15T13:58:41;99061.84;;;1.44
85096;BMP280;75436;53.502;10.030;2024-01-15T14:01:08;99067.00;;;1.58
85096;BMP280;75436;53.502;10.030;2024-01-15T14:03:33;99077.00;;;1.37
85096;BMP280;75436;53.502;10.030;2024-01-15T14:06:00;99058.03;;;1.42
85096;BMP280;75436;53.502;10.030;2024-01-15T14:08:28;99056.69;;;1.44
85096;BMP280;75436;53.502;10.030;2024-01-15T14:10:53;99063.97;;;1.42
85096;BMP280;75436;53.502;10.030;2024-01-15T14:13:19;99064.06;;;1.37
85096;BMP280;75436;53.502;10.030;2024-01-15T14:15:48;99069.72;;;1.39
85096;BMP280;75436;53.502;10.030;2024-01-15T14:18:16;99054.97;;;1.40
85096;BMP280;75436;53.502;10.030;2024-01-15T14:20:43;99049.13;;;1.48
85096;BMP280;75436;53.502;10.030;2024-01-15T14:23:08;99064.16;;;1.46
85096;BMP280;75436;53.502;10.030;2024-01-15T14:25:37;99065.19;;;1.58
85096;BMP280;75436;53.502;10.030;2024-01-15T14:28:02;99078.59;;;1.60